This is the latest recevied weather packets stored in our database for station/object OE5RBO. If no packets are shown the sender has not sent any weather packets the latest 1 day(s).
| Time | Temp. | Humidity | Pressure | Rain* | Wind** | Luminosity | Snow |
|---|---|---|---|---|---|---|---|
| 1836274531 | 12.22° C | 99% | 1023 hPa | 0 mm | 0 m/s | - | - |
| 1836274381 | 11.67° C | 99% | 1023 hPa | 0 mm | 0 m/s | - | - |
| 1836273931 | 11.67° C | 98% | 1023.2 hPa | 0 mm | 0 m/s | - | - |
| 1778051367 | 21.11° C | 71% | 1006.9 hPa | 0 mm | 0 m/s | - | - |
| 1778050767 | 20.56° C | 73% | 1007.1 hPa | 0 mm | 0.45 m/s, 179° | - | - |
| 1778050166 | 18.89° C | 79% | 1007.1 hPa | 0 mm | 0 m/s | - | - |
| 1778049566 | 17.22° C | 83% | 1007.3 hPa | 0 mm | 0 m/s | - | - |
| 1778048966 | 16.67° C | 84% | 1007.4 hPa | 0 mm | 0 m/s | - | - |
| 1778048365 | 16.11° C | 86% | 1007.3 hPa | 0 mm | 0 m/s | - | - |
| 1778047164 | 15.56° C | 87% | 1007.3 hPa | 0 mm | 0 m/s | - | - |
| 1778046564 | 16.11° C | 85% | 1007.3 hPa | 0 mm | 0 m/s | - | - |
| 1778045963 | 15.56° C | 90% | 1007.4 hPa | 0 mm | 0 m/s | - | - |
| 1778044162 | 12.22° C | 96% | 1007.6 hPa | 0 mm | 0 m/s | - | - |
| 1778043562 | 11.11° C | 97% | 1007.6 hPa | 0 mm | 0 m/s | - | - |
| 1778042962 | 11.11° C | 97% | 1007.6 hPa | 0 mm | 0.89 m/s, 13° | - | - |
| 1778042361 | 11.11° C | 97% | 1007.6 hPa | 0 mm | 0.45 m/s, 195° | - | - |
| 1778041761 | 11.67° C | 95% | 1007.4 hPa | 0 mm | 0 m/s | - | - |
| 1778041160 | 12.22° C | 92% | 1007.4 hPa | 0 mm | 0 m/s | - | - |
| 1778040560 | 12.78° C | 91% | 1007.6 hPa | 0 mm | 0 m/s | - | - |
| 1778039960 | 13.33° C | 88% | 1007.8 hPa | 0 mm | 0.45 m/s, 53° | - | - |
| 1778039360 | 13.89° C | 86% | 1008 hPa | 0 mm | 0 m/s | - | - |
| 1778038159 | 13.89° C | 84% | 1008 hPa | 0 mm | 1.34 m/s, 132° | - | - |
| 1778037558 | 13.33° C | 88% | 1008.3 hPa | 0 mm | 0.89 m/s, 122° | - | - |
| 1778036958 | 13.33° C | 92% | 1008.5 hPa | 0 mm | 0.89 m/s, 110° | - | - |
| 1778035757 | 13.89° C | 90% | 1008 hPa | 0 mm | 0.89 m/s, 162° | - | - |
* Rain since midnight (hover to see other rain measurements)
** Current wind speed in m/s (hover to see current wind gust speed)